Time;durP1;ratioP1;P1;durP2;ratioP2;P2;SDS_P1;SDS_P2;PMS_P1;PMS_P2;Temp;Humidity;BMP_temperature;BMP_pressure;BME280_temperature;BME280_humidity;BME280_pressure;Samples;Min_cycle;Max_cycle;Signal;HPM_P1;HPM_P2
2022/11/15 00:00:44;;;;;;;9.43;4.53;;;10.60;1.00;;;;;;5018712;28;20443;-70
2022/11/15 00:03:10;;;;;;;5.70;4.10;;;10.70;1.00;;;;;;5013724;28;20800;-71
2022/11/15 00:05:35;;;;;;;8.23;4.60;;;10.70;1.00;;;;;;5021726;28;20174;-71
2022/11/15 00:08:01;;;;;;;6.23;4.60;;;10.70;1.00;;;;;;5017760;28;20190;-71
2022/11/15 00:10:27;;;;;;;5.50;4.50;;;10.70;1.00;;;;;;5011168;28;20190;-71
2022/11/15 00:12:52;;;;;;;8.10;4.80;;;10.70;1.00;;;;;;5009938;28;20700;-71
2022/11/15 00:15:18;;;;;;;5.37;4.57;;;10.70;1.00;;;;;;5009853;28;20210;-71
2022/11/15 00:17:44;;;;;;;5.80;4.40;;;10.80;1.00;;;;;;5018220;28;20227;-71
2022/11/15 00:20:11;;;;;;;5.93;4.20;;;11.10;1.00;;;;;;5019125;28;20252;-71
2022/11/15 00:22:36;;;;;;;6.93;4.53;;;11.10;1.00;;;;;;5027081;28;20216;-71
2022/11/15 00:25:03;;;;;;;7.17;4.83;;;11.20;1.00;;;;;;5019312;28;20437;-71
2022/11/15 00:27:28;;;;;;;10.73;5.07;;;11.30;1.00;;;;;;5018554;28;20178;-71
2022/11/15 00:29:54;;;;;;;5.77;4.30;;;11.30;1.00;;;;;;5010041;28;20483;-71
2022/11/15 00:32:19;;;;;;;7.83;4.03;;;11.40;1.00;;;;;;5007685;28;20492;-71
2022/11/15 00:34:45;;;;;;;6.37;4.40;;;11.50;1.00;;;;;;5019855;28;20182;-71
2022/11/15 00:37:10;;;;;;;6.60;4.43;;;11.60;1.00;;;;;;5016110;28;20182;-71
2022/11/15 00:39:36;;;;;;;8.10;4.73;;;11.70;1.00;;;;;;5019332;28;20696;-71
2022/11/15 00:42:01;;;;;;;7.80;4.70;;;11.70;1.00;;;;;;5026328;28;20265;-71
2022/11/15 00:44:27;;;;;;;7.83;4.57;;;11.70;1.00;;;;;;5008976;28;20170;-71
2022/11/15 00:46:52;;;;;;;5.10;3.93;;;11.70;1.00;;;;;;5007685;28;20233;-71
2022/11/15 00:49:18;;;;;;;5.03;4.13;;;11.60;1.00;;;;;;5008020;28;20214;-71
2022/11/15 00:51:43;;;;;;;6.00;3.87;;;11.60;1.00;;;;;;5017475;28;20174;-70
2022/11/15 00:54:09;;;;;;;5.97;4.37;;;11.60;1.00;;;;;;5018399;28;20265;-71
2022/11/15 00:56:34;;;;;;;8.10;4.60;;;11.60;1.00;;;;;;5012669;28;20684;-71
2022/11/15 00:59:00;;;;;;;4.80;3.80;;;11.60;1.00;;;;;;5018884;28;20178;-71
2022/11/15 01:01:25;;;;;;;6.97;4.10;;;11.60;1.00;;;;;;5023626;28;20178;-70
2022/11/15 01:03:51;;;;;;;8.13;4.40;;;11.60;1.00;;;;;;5016333;28;20194;-71
2022/11/15 01:06:16;;;;;;;5.73;4.20;;;11.60;1.00;;;;;;5012368;28;20187;-71
2022/11/15 01:08:42;;;;;;;7.33;4.13;;;11.60;1.00;;;;;;5011322;28;20605;-71
2022/11/15 01:11:11;;;;;;;5.80;4.00;;;11.60;1.00;;;;;;5024289;28;20236;-70
2022/11/15 01:13:37;;;;;;;7.73;4.73;;;11.60;1.00;;;;;;5014128;28;20206;-70
2022/11/15 01:16:16;;;;;;;7.33;4.20;;;11.60;1.00;;;;;;4999110;28;20461;-71
2022/11/15 01:18:41;;;;;;;5.70;4.40;;;11.50;1.00;;;;;;5010106;28;20440;-71
2022/11/15 01:21:09;;;;;;;7.30;4.03;;;11.50;1.00;;;;;;5017550;28;20405;-71
2022/11/15 01:23:35;;;;;;;6.47;4.27;;;11.40;1.00;;;;;;5016251;28;20265;-70
2022/11/15 01:26:02;;;;;;;7.40;4.83;;;11.40;1.00;;;;;;5008015;28;20405;-71
2022/11/15 01:28:32;;;;;;;5.63;4.13;;;11.30;1.00;;;;;;5009689;28;20175;-71
2022/11/15 01:31:03;;;;;;;5.90;4.63;;;11.20;1.00;;;;;;5027783;28;20515;-68
2022/11/15 01:33:29;;;;;;;9.03;5.30;;;11.20;1.00;;;;;;5015278;28;20456;-71
2022/11/15 01:35:55;;;;;;;5.57;4.40;;;11.10;1.00;;;;;;5020602;28;20514;-72
2022/11/15 01:38:21;;;;;;;6.37;4.57;;;11.00;1.00;;;;;;5017582;28;20441;-71
2022/11/15 01:40:47;;;;;;;5.17;4.10;;;11.00;1.00;;;;;;5024135;28;20512;-71
2022/11/15 01:43:23;;;;;;;10.30;4.23;;;10.90;1.00;;;;;;5015877;28;20214;-71
2022/11/15 01:46:03;;;;;;;5.73;4.77;;;10.90;1.00;;;;;;4999667;28;20636;-70
2022/11/15 01:48:33;;;;;;;10.27;4.50;;;10.90;1.00;;;;;;5011387;28;20931;-71
2022/11/15 01:51:01;;;;;;;5.10;4.10;;;10.90;1.00;;;;;;5018995;28;20536;-71
2022/11/15 01:53:29;;;;;;;4.80;3.60;;;10.90;1.00;;;;;;5019630;28;20444;-71
2022/11/15 01:55:55;;;;;;;10.40;4.10;;;11.00;1.00;;;;;;5023110;28;20497;-71
2022/11/15 01:58:21;;;;;;;5.70;4.20;;;10.90;1.00;;;;;;5016727;28;20406;-68
2022/11/15 02:00:49;;;;;;;4.60;3.77;;;11.00;1.00;;;;;;4999600;28;20910;-70
2022/11/15 02:03:15;;;;;;;5.73;3.70;;;11.00;1.00;;;;;;5006479;28;20974;-71
2022/11/15 02:05:41;;;;;;;6.23;4.13;;;11.00;1.00;;;;;;5008037;28;20615;-69
2022/11/15 02:08:08;;;;;;;5.90;4.00;;;11.00;1.00;;;;;;5009325;28;20233;-71
2022/11/15 02:10:34;;;;;;;5.07;3.90;;;11.00;1.00;;;;;;5008856;28;20437;-71
2022/11/15 02:13:01;;;;;;;6.00;3.63;;;11.00;1.00;;;;;;5017103;28;20437;-71
2022/11/15 02:15:38;;;;;;;6.03;3.87;;;11.10;1.00;;;;;;5000166;28;20229;-71
2022/11/15 02:18:15;;;;;;;4.93;4.07;;;11.10;1.00;;;;;;5013723;28;20529;-71
2022/11/15 02:21:05;;;;;;;8.20;4.13;;;11.10;1.00;;;;;;5017018;28;20530;-69
2022/11/15 02:23:57;;;;;;;4.70;3.87;;;11.10;1.00;;;;;;5016399;28;20457;-70
2022/11/15 02:27:11;;;;;;;6.73;4.30;;;11.00;1.00;;;;;;5013890;28;20449;-71
2022/11/15 02:29:51;;;;;;;5.50;3.83;;;11.00;1.00;;;;;;5010722;28;20467;-70
2022/11/15 02:33:03;;;;;;;3.50;3.20;;;11.00;1.00;;;;;;5012909;28;20456;-71
2022/11/15 02:35:47;;;;;;;6.00;3.93;;;10.90;1.00;;;;;;5016409;28;20575;-70
2022/11/15 02:38:31;;;;;;;6.10;4.37;;;10.80;1.00;;;;;;5023763;28;20443;-71
2022/11/15 02:41:04;;;;;;;6.43;3.70;;;10.60;1.00;;;;;;5024414;28;20408;-71
2022/11/15 02:43:56;;;;;;;7.40;3.60;;;10.60;1.00;;;;;;5017665;28;20472;-70
2022/11/15 02:49:25;;;;;;;7.83;4.37;;;10.50;1.00;;;;;;5012011;28;20471;-71
2022/11/15 02:51:52;;;;;;;6.70;4.07;;;10.40;1.00;;;;;;5015640;28;20444;-70
2022/11/15 02:54:23;;;;;;;4.40;3.57;;;10.40;1.00;;;;;;5017206;28;20503;-71
2022/11/15 02:56:51;;;;;;;5.83;3.80;;;10.40;1.00;;;;;;5016171;28;20465;-71
2022/11/15 02:59:35;;;;;;;5.17;4.00;;;10.30;1.00;;;;;;5023641;28;20510;-71
2022/11/15 03:02:03;;;;;;;6.57;3.97;;;10.00;1.00;;;;;;5007171;28;20440;-72
2022/11/15 03:04:35;;;;;;;8.30;4.20;;;10.10;1.00;;;;;;5016803;28;20448;-71
2022/11/15 03:07:12;;;;;;;5.67;4.53;;;10.10;1.00;;;;;;5005603;28;22389;-70
2022/11/15 03:09:56;;;;;;;7.53;4.40;;;10.20;1.00;;;;;;5012847;28;20499;-71
2022/11/15 03:12:30;;;;;;;7.90;4.17;;;10.20;1.00;;;;;;5019957;28;20938;-71
2022/11/15 03:15:05;;;;;;;5.77;3.57;;;10.30;1.00;;;;;;5011435;28;20448;-71
2022/11/15 03:17:42;;;;;;;6.43;3.93;;;10.30;1.00;;;;;;5019612;28;20406;-71
2022/11/15 03:20:10;;;;;;;6.73;3.93;;;10.30;1.00;;;;;;5015364;28;20957;-71
2022/11/15 03:22:43;;;;;;;5.50;4.00;;;10.30;1.00;;;;;;5022976;28;20431;-71
2022/11/15 03:25:12;;;;;;;5.57;3.60;;;10.30;1.00;;;;;;5018915;28;20447;-71
2022/11/15 03:27:46;;;;;;;5.37;4.20;;;10.20;1.00;;;;;;5012791;28;20433;-71
2022/11/15 03:30:13;;;;;;;5.73;4.17;;;10.20;1.00;;;;;;5012092;28;20429;-71
2022/11/15 03:32:50;;;;;;;6.53;3.63;;;10.20;1.00;;;;;;5013122;28;20522;-70
2022/11/15 03:35:21;;;;;;;5.83;4.43;;;10.20;1.00;;;;;;5023864;28;20443;-71
2022/11/15 03:38:14;;;;;;;6.90;3.90;;;10.10;1.00;;;;;;5024912;28;20436;-71
2022/11/15 03:40:59;;;;;;;3.60;3.17;;;10.20;1.00;;;;;;5020549;28;20417;-70
2022/11/15 03:43:38;;;;;;;5.63;3.57;;;10.30;1.00;;;;;;5018981;28;20472;-71
2022/11/15 03:46:10;;;;;;;5.17;3.53;;;10.40;1.00;;;;;;5011598;28;20970;-71
2022/11/15 03:48:43;;;;;;;8.50;3.87;;;10.40;1.00;;;;;;5012725;28;20465;-71
2022/11/15 03:51:09;;;;;;;6.50;3.90;;;10.50;1.00;;;;;;5016223;28;20443;-70
2022/11/15 03:53:34;;;;;;;5.80;3.73;;;10.50;1.00;;;;;;5020997;28;20430;-71
2022/11/15 03:56:00;;;;;;;6.67;3.47;;;10.60;1.00;;;;;;5022999;28;21006;-71
2022/11/15 03:58:25;;;;;;;7.43;3.63;;;10.70;1.00;;;;;;5030276;28;20177;-71
2022/11/15 04:00:51;;;;;;;4.43;2.93;;;11.10;1.00;;;;;;5017629;28;20177;-71
2022/11/15 04:03:16;;;;;;;4.73;3.83;;;11.10;1.00;;;;;;5014617;28;20255;-71
2022/11/15 04:05:42;;;;;;;5.13;3.17;;;11.20;1.00;;;;;;5021088;28;20224;-70
2022/11/15 04:08:07;;;;;;;5.63;3.10;;;11.40;1.00;;;;;;5012335;28;20190;-70
2022/11/15 04:10:33;;;;;;;6.00;3.50;;;11.50;1.00;;;;;;5019632;28;20189;-71
2022/11/15 04:12:59;;;;;;;4.40;2.93;;;11.60;1.00;;;;;;5013940;28;20194;-71
2022/11/15 04:15:24;;;;;;;4.57;3.30;;;11.70;1.00;;;;;;5004447;28;20199;-71
2022/11/15 04:17:52;;;;;;;4.00;3.13;;;11.80;1.00;;;;;;5011284;28;20214;-71
2022/11/15 04:26:13;;;;;;;3.80;3.40;;;11.80;1.00;;;;;;5011393;28;20409;-71
2022/11/15 04:31:23;;;;;;;5.53;3.23;;;12.00;1.00;;;;;;5009572;28;20408;-69
2022/11/15 04:33:48;;;;;;;6.70;3.23;;;12.00;1.00;;;;;;5018845;28;20568;-71
2022/11/15 04:38:58;;;;;;;4.70;3.80;;;12.00;1.00;;;;;;5022406;28;20217;-71
2022/11/15 04:41:24;;;;;;;5.00;4.33;;;12.00;1.00;;;;;;5020974;28;20931;-70
2022/11/15 04:43:49;;;;;;;4.40;3.63;;;12.00;1.00;;;;;;5015160;28;20588;-71
2022/11/15 04:46:15;;;;;;;8.80;3.73;;;11.90;1.00;;;;;;5002144;28;20190;-71
2022/11/15 04:48:41;;;;;;;3.93;3.10;;;11.80;1.00;;;;;;5008898;28;20266;-71
2022/11/15 04:51:06;;;;;;;6.80;3.30;;;11.80;1.00;;;;;;5027216;28;20205;-71
2022/11/15 04:53:32;;;;;;;5.70;3.40;;;11.80;1.00;;;;;;5019644;28;20209;-71
2022/11/15 04:55:57;;;;;;;6.53;3.30;;;11.70;1.00;;;;;;5015806;28;20921;-70
2022/11/15 04:58:22;;;;;;;9.07;3.50;;;11.70;1.00;;;;;;5018552;28;20655;-70
2022/11/15 05:00:48;;;;;;;5.60;3.60;;;11.70;1.00;;;;;;5018402;28;20178;-70
2022/11/15 05:05:58;;;;;;;5.00;3.70;;;11.60;1.00;;;;;;5016438;28;20261;-70
2022/11/15 05:08:24;;;;;;;7.10;4.33;;;13.00;1.00;;;;;;5008773;28;20445;-70
2022/11/15 05:10:50;;;;;;;6.70;3.67;;;11.40;1.00;;;;;;5018246;28;20481;-70
2022/11/15 05:13:16;;;;;;;5.13;3.83;;;11.30;1.00;;;;;;5003274;28;20276;-71
2022/11/15 05:15:41;;;;;;;7.03;4.10;;;11.20;1.00;;;;;;5007933;28;20709;-69
2022/11/15 05:18:07;;;;;;;4.70;3.70;;;11.20;1.00;;;;;;5028610;28;20170;-71
2022/11/15 05:20:32;;;;;;;11.83;3.80;;;11.20;1.00;;;;;;5015369;28;20281;-71
2022/11/15 05:22:58;;;;;;;5.93;3.60;;;11.20;1.00;;;;;;5008899;28;20558;-71
2022/11/15 05:25:24;;;;;;;4.30;3.17;;;11.20;1.00;;;;;;5011677;28;20685;-71
2022/11/15 05:27:49;;;;;;;3.97;3.00;;;11.30;1.00;;;;;;5009528;28;20183;-72
2022/11/15 05:30:16;;;;;;;4.83;3.27;;;11.30;1.00;;;;;;5010684;28;20189;-71
2022/11/15 05:32:42;;;;;;;5.70;3.40;;;11.40;1.00;;;;;;5011913;28;20212;-71
2022/11/15 05:35:15;;;;;;;7.73;3.60;;;11.40;1.00;;;;;;5019758;28;20475;-70
2022/11/15 05:37:40;;;;;;;4.10;3.07;;;11.40;1.00;;;;;;5016379;28;20436;-71
2022/11/15 05:40:07;;;;;;;5.43;3.60;;;11.40;1.00;;;;;;5020204;28;20568;-71
2022/11/15 05:42:32;;;;;;;4.07;3.40;;;11.50;1.00;;;;;;5016457;28;20674;-71
2022/11/15 05:44:59;;;;;;;3.83;3.30;;;11.50;1.00;;;;;;5001593;28;20437;-71
2022/11/15 05:47:29;;;;;;;3.47;3.17;;;11.50;1.00;;;;;;5008194;28;20798;-71
2022/11/15 05:49:55;;;;;;;5.80;3.00;;;11.60;1.00;;;;;;5008648;28;20509;-71
2022/11/15 05:52:25;;;;;;;6.03;3.60;;;11.60;1.00;;;;;;5016418;28;21048;-71
2022/11/15 05:54:52;;;;;;;6.00;3.50;;;11.60;1.00;;;;;;5010180;28;20854;-70
2022/11/15 05:57:18;;;;;;;3.50;3.17;;;11.60;1.00;;;;;;5016889;28;20971;-71
2022/11/15 05:59:44;;;;;;;7.23;3.70;;;11.60;1.00;;;;;;5025682;28;20419;-68
2022/11/15 06:02:10;;;;;;;4.50;3.40;;;11.70;1.00;;;;;;5006929;28;20938;-71
2022/11/15 06:04:36;;;;;;;6.67;3.57;;;11.70;1.00;;;;;;5016225;28;20187;-69
2022/11/15 06:07:02;;;;;;;5.80;3.77;;;11.60;1.00;;;;;;5012500;28;20511;-71
2022/11/15 06:09:27;;;;;;;4.20;3.47;;;11.70;1.00;;;;;;5007124;28;20241;-71
2022/11/15 06:11:53;;;;;;;7.30;3.60;;;11.70;1.00;;;;;;5007573;28;20425;-71
2022/11/15 06:14:19;;;;;;;5.10;3.10;;;11.70;1.00;;;;;;5007766;28;20198;-71
2022/11/15 06:16:44;;;;;;;6.30;3.47;;;11.70;1.00;;;;;;5006714;28;20260;-71
2022/11/15 06:19:10;;;;;;;6.27;3.80;;;11.70;1.00;;;;;;5018730;28;20201;-71
2022/11/15 06:21:35;;;;;;;4.30;3.07;;;11.70;1.00;;;;;;5018915;28;20170;-70
2022/11/15 06:24:01;;;;;;;3.77;3.30;;;11.80;1.00;;;;;;5013147;28;20641;-72
2022/11/15 06:26:26;;;;;;;4.60;3.40;;;11.80;1.00;;;;;;5015307;28;20179;-71
2022/11/15 06:28:52;;;;;;;5.23;3.10;;;12.00;1.00;;;;;;5004248;28;20240;-70
2022/11/15 06:31:17;;;;;;;5.37;3.20;;;11.80;1.00;;;;;;5015353;28;20324;-70
2022/11/15 06:33:43;;;;;;;3.63;2.80;;;11.80;1.00;;;;;;5016847;28;20248;-69
2022/11/15 06:36:16;;;;;;;5.07;3.73;;;11.90;1.00;;;;;;5012842;28;20198;-71
2022/11/15 06:38:43;;;;;;;5.83;3.23;;;11.90;1.00;;;;;;5015740;28;20265;-72
2022/11/15 06:41:10;;;;;;;5.13;3.90;;;11.90;1.00;;;;;;5015266;28;20453;-71
2022/11/15 06:43:36;;;;;;;4.47;3.50;;;11.90;1.00;;;;;;5012851;28;20577;-70
2022/11/15 06:46:04;;;;;;;4.83;3.20;;;11.90;1.00;;;;;;4998052;28;20578;-71
2022/11/15 06:48:31;;;;;;;4.80;3.90;;;11.90;1.00;;;;;;5009231;28;20414;-71
2022/11/15 06:50:58;;;;;;;5.33;3.23;;;11.90;1.00;;;;;;5005535;28;20452;-70
2022/11/15 06:53:24;;;;;;;4.80;3.20;;;12.00;1.00;;;;;;5014762;28;20436;-71
2022/11/15 06:55:50;;;;;;;7.10;3.27;;;12.00;1.00;;;;;;5008680;28;20803;-71
2022/11/15 06:58:16;;;;;;;5.47;3.30;;;12.00;1.00;;;;;;5007645;28;20509;-71
2022/11/15 07:00:41;;;;;;;12.30;3.50;;;12.00;1.00;;;;;;5006531;28;20190;-68
2022/11/15 07:03:07;;;;;;;5.37;4.00;;;12.00;1.00;;;;;;5006724;28;20255;-71
2022/11/15 07:05:33;;;;;;;4.03;3.63;;;11.90;1.00;;;;;;5015840;28;20178;-71
2022/11/15 07:07:59;;;;;;;6.50;3.97;;;11.90;1.00;;;;;;5006260;28;20236;-71
2022/11/15 07:10:25;;;;;;;6.13;3.77;;;11.90;1.00;;;;;;5011898;28;20185;-74
2022/11/15 07:12:52;;;;;;;8.93;3.50;;;11.90;1.00;;;;;;5012498;28;20456;-73
2022/11/15 07:15:19;;;;;;;7.03;3.28;;;12.00;1.00;;;;;;5008439;28;20572;-70
2022/11/15 07:17:44;;;;;;;7.17;2.93;;;12.20;1.00;;;;;;5018857;28;20178;-73
2022/11/15 07:20:10;;;;;;;6.67;3.40;;;12.40;1.00;;;;;;5016219;28;20444;-73
2022/11/15 07:22:36;;;;;;;4.77;3.67;;;12.60;1.00;;;;;;5014688;28;20286;-74
2022/11/15 07:25:02;;;;;;;4.83;3.23;;;12.80;1.00;;;;;;5016686;28;20430;-74
2022/11/15 07:27:28;;;;;;;4.47;3.20;;;12.90;1.00;;;;;;5026473;28;20173;-75
2022/11/15 07:29:53;;;;;;;6.27;3.33;;;13.00;1.00;;;;;;5019580;28;20429;-72
2022/11/15 07:32:19;;;;;;;4.30;3.20;;;13.10;1.00;;;;;;5014212;28;20219;-72
2022/11/15 07:34:45;;;;;;;4.83;3.37;;;13.00;1.00;;;;;;5013014;28;20266;-72
2022/11/15 07:37:12;;;;;;;9.70;5.57;;;13.00;1.00;;;;;;5018225;28;20738;-72
2022/11/15 07:39:37;;;;;;;14.10;4.40;;;12.90;1.00;;;;;;5011137;28;20437;-71
2022/11/15 07:44:47;;;;;;;7.83;4.93;;;12.90;1.00;;;;;;5006167;28;20296;-72
2022/11/15 07:47:13;;;;;;;5.10;4.13;;;12.90;1.00;;;;;;5025301;28;20814;-72
2022/11/15 07:49:38;;;;;;;4.30;3.73;;;13.00;1.00;;;;;;5012278;28;20569;-73
2022/11/15 07:52:04;;;;;;;5.67;3.83;;;13.10;1.00;;;;;;5009046;28;20174;-72
2022/11/15 07:54:29;;;;;;;6.07;3.70;;;13.20;1.00;;;;;;4996163;28;20203;-72
2022/11/15 07:56:55;;;;;;;5.30;4.10;;;13.20;1.00;;;;;;5003174;28;20689;-71
2022/11/15 07:59:21;;;;;;;3.87;3.47;;;13.30;1.00;;;;;;5010907;28;20175;-72
2022/11/15 08:01:46;;;;;;;8.13;3.33;;;13.40;1.00;;;;;;5010329;28;20170;-71
2022/11/15 08:04:12;;;;;;;4.00;3.10;;;13.40;1.00;;;;;;5011978;28;20198;-72
2022/11/15 08:06:37;;;;;;;5.80;3.40;;;13.50;1.00;;;;;;5011603;28;20656;-72
2022/11/15 08:09:03;;;;;;;4.17;3.10;;;13.40;1.00;;;;;;5012292;28;20621;-71
2022/11/15 08:11:29;;;;;;;3.23;2.90;;;13.50;1.00;;;;;;5011193;28;20193;-71
2022/11/15 08:13:54;;;;;;;6.47;3.23;;;13.50;1.00;;;;;;5008725;28;20207;-71
2022/11/15 08:16:20;;;;;;;4.30;3.50;;;13.50;1.00;;;;;;5005687;28;20237;-71
2022/11/15 08:18:46;;;;;;;5.63;4.00;;;13.50;1.00;;;;;;5010799;28;20170;-71
2022/11/15 08:21:16;;;;;;;7.90;4.37;;;13.60;1.00;;;;;;5009799;28;20639;-71
2022/11/15 08:23:42;;;;;;;6.70;4.73;;;13.60;1.00;;;;;;5009717;28;20285;-71
2022/11/15 08:26:09;;;;;;;6.80;4.00;;;13.70;1.00;;;;;;5011774;28;20575;-71
2022/11/15 08:28:34;;;;;;;4.33;3.50;;;13.80;1.00;;;;;;5011737;28;20621;-71
2022/11/15 08:31:00;;;;;;;6.07;3.83;;;13.90;1.00;;;;;;5011393;28;20421;-71
2022/11/15 08:33:27;;;;;;;8.67;3.60;;;14.00;1.00;;;;;;5011261;28;20203;-71
2022/11/15 08:35:59;;;;;;;8.30;3.70;;;14.10;1.00;;;;;;5011284;28;20615;-71
2022/11/15 08:38:25;;;;;;;5.23;3.70;;;14.20;1.00;;;;;;5011400;28;20501;-72
2022/11/15 08:41:03;;;;;;;6.17;3.80;;;14.30;1.00;;;;;;5011217;28;20529;-71
2022/11/15 08:43:29;;;;;;;5.30;3.50;;;14.30;1.00;;;;;;5008518;28;20468;-72
2022/11/15 08:45:58;;;;;;;7.70;4.17;;;14.30;1.00;;;;;;5006767;28;20429;-71
2022/11/15 08:48:23;;;;;;;6.90;3.90;;;14.30;1.00;;;;;;5010151;28;20193;-72
2022/11/15 08:50:52;;;;;;;3.87;3.40;;;14.20;1.00;;;;;;5010509;28;20924;-71
2022/11/15 08:53:18;;;;;;;9.00;3.67;;;14.20;1.00;;;;;;5009453;28;20521;-71
2022/11/15 08:55:43;;;;;;;4.80;3.47;;;14.30;1.00;;;;;;5010164;28;20453;-71
2022/11/15 08:58:09;;;;;;;3.90;3.33;;;14.40;1.00;;;;;;5011438;28;20171;-71
2022/11/15 09:00:34;;;;;;;4.50;3.23;;;14.60;1.00;;;;;;5010667;28;20289;-72
2022/11/15 09:03:04;;;;;;;4.63;3.27;;;14.70;1.00;;;;;;5009973;28;20225;-72
2022/11/15 09:05:30;;;;;;;6.67;3.30;;;14.70;1.00;;;;;;5009524;28;20276;-72
2022/11/15 09:07:55;;;;;;;4.43;3.00;;;14.80;1.00;;;;;;5010817;28;20500;-72
2022/11/15 09:10:21;;;;;;;3.97;3.30;;;14.80;1.00;;;;;;5011344;28;20613;-72
2022/11/15 09:12:50;;;;;;;9.20;3.20;;;14.80;1.00;;;;;;5004601;28;20202;-72
2022/11/15 09:15:16;;;;;;;4.80;3.30;;;14.90;1.00;;;;;;5001227;28;20540;-72
2022/11/15 09:17:42;;;;;;;7.53;3.10;;;15.00;1.00;;;;;;5009869;28;20440;-72
2022/11/15 09:20:08;;;;;;;4.13;3.17;;;15.00;1.00;;;;;;5009136;28;20505;-72
2022/11/15 09:22:34;;;;;;;6.63;3.40;;;15.10;1.00;;;;;;5009570;28;20195;-71
2022/11/15 09:25:00;;;;;;;6.20;3.83;;;15.30;1.00;;;;;;5011180;28;20409;-72
2022/11/15 09:27:30;;;;;;;7.70;3.50;;;15.60;1.00;;;;;;5008856;28;20475;-72
2022/11/15 09:29:55;;;;;;;8.47;3.77;;;15.90;1.00;;;;;;5006734;28;20270;-72
2022/11/15 09:32:24;;;;;;;5.37;3.73;;;16.10;1.00;;;;;;5012616;28;20847;-71
2022/11/15 09:34:50;;;;;;;7.27;5.70;;;16.30;1.00;;;;;;5010135;28;20175;-72
2022/11/15 09:37:16;;;;;;;8.53;5.33;;;16.40;1.00;;;;;;5009949;28;20835;-72
2022/11/15 09:39:41;;;;;;;6.23;4.00;;;16.40;1.00;;;;;;5010614;28;20174;-72
2022/11/15 09:42:23;;;;;;;6.53;3.93;;;16.40;1.00;;;;;;5009790;28;20175;-72
2022/11/15 09:45:06;;;;;;;9.43;5.67;;;16.40;1.00;;;;;;4998858;28;20210;-71
2022/11/15 09:48:13;;;;;;;6.70;5.00;;;16.40;1.00;;;;;;5009528;28;20459;-72
2022/11/15 09:50:46;;;;;;;5.63;3.67;;;16.40;1.00;;;;;;4968769;28;20441;-72
2022/11/15 09:53:24;;;;;;;5.20;3.73;;;16.30;1.00;;;;;;4968428;28;20533;-72
2022/11/15 09:56:01;;;;;;;6.37;3.77;;;16.20;1.00;;;;;;4993322;28;20498;-71
2022/11/15 09:58:39;;;;;;;9.33;4.30;;;16.40;1.00;;;;;;5010420;28;20417;-71
2022/11/15 10:01:16;;;;;;;4.77;3.67;;;16.10;1.00;;;;;;5009088;28;20962;-71
2022/11/15 10:03:42;;;;;;;9.13;4.03;;;16.20;1.00;;;;;;5009520;28;20449;-72
2022/11/15 10:06:24;;;;;;;5.57;3.60;;;16.20;1.00;;;;;;5007390;28;20812;-71
2022/11/15 10:09:00;;;;;;;5.80;4.40;;;16.10;1.00;;;;;;5010366;28;20489;-72
2022/11/15 10:11:29;;;;;;;5.67;4.00;;;16.10;1.00;;;;;;5009698;28;20846;-71
2022/11/15 10:13:59;;;;;;;6.73;4.03;;;16.10;1.00;;;;;;5007306;28;20448;-73
2022/11/15 10:17:04;;;;;;;6.80;4.07;;;16.00;1.00;;;;;;5004386;28;20943;-72
2022/11/15 10:20:00;;;;;;;7.53;4.60;;;16.10;1.00;;;;;;5010256;28;20867;-72
2022/11/15 10:22:53;;;;;;;6.53;3.53;;;16.20;1.00;;;;;;5009150;28;20437;-71
2022/11/15 10:25:29;;;;;;;5.17;3.27;;;16.10;1.00;;;;;;5004399;28;20434;-71
2022/11/15 10:28:22;;;;;;;7.87;3.33;;;16.00;1.00;;;;;;5009735;28;20920;-72
2022/11/15 10:30:54;;;;;;;4.60;3.20;;;15.90;1.00;;;;;;5009279;28;20426;-71
2022/11/15 10:33:40;;;;;;;4.97;3.07;;;15.90;1.00;;;;;;5009267;28;20452;-73
2022/11/15 10:36:08;;;;;;;9.57;4.93;;;15.70;1.00;;;;;;5008866;28;20461;-71
2022/11/15 10:38:50;;;;;;;7.63;3.93;;;15.60;1.00;;;;;;5010009;28;20496;-72
2022/11/15 10:41:23;;;;;;;4.03;3.63;;;15.50;1.00;;;;;;5009552;28;20484;-72
2022/11/15 10:44:07;;;;;;;5.90;4.30;;;15.60;1.00;;;;;;5007580;28;20465;-72
2022/11/15 10:46:37;;;;;;;6.10;3.60;;;15.80;1.00;;;;;;5003978;28;20508;-70
2022/11/15 10:49:21;;;;;;;5.03;3.37;;;15.90;1.00;;;;;;5016206;28;20467;-71
2022/11/15 10:51:53;;;;;;;6.60;3.10;;;16.00;1.00;;;;;;5026292;28;20778;-71
2022/11/15 10:54:34;;;;;;;11.90;4.00;;;16.00;1.00;;;;;;5020915;28;20973;-71
2022/11/15 10:57:05;;;;;;;4.37;3.53;;;16.20;1.00;;;;;;4995400;28;20507;-73
2022/11/15 10:59:33;;;;;;;9.23;3.30;;;16.30;1.00;;;;;;5017876;28;20904;-72
2022/11/15 11:01:59;;;;;;;4.90;3.10;;;16.40;1.00;;;;;;5021692;28;20934;-72
2022/11/15 11:04:25;;;;;;;3.60;2.90;;;16.30;1.00;;;;;;5018744;28;20424;-72
2022/11/15 11:06:57;;;;;;;4.87;3.00;;;16.30;1.00;;;;;;5028703;28;22652;-71
2022/11/15 11:09:35;;;;;;;8.10;3.10;;;16.30;1.00;;;;;;5012398;28;20206;-71
2022/11/15 11:12:02;;;;;;;4.50;3.40;;;16.20;1.00;;;;;;5009673;28;20448;-72
2022/11/15 11:14:36;;;;;;;3.40;3.10;;;16.20;1.00;;;;;;5012555;28;21114;-72
2022/11/15 11:17:44;;;;;;;4.17;2.90;;;16.20;1.00;;;;;;4995541;28;21271;-72
2022/11/15 11:20:28;;;;;;;7.67;4.93;;;16.50;1.00;;;;;;5013166;28;21082;-69
2022/11/15 11:23:01;;;;;;;6.80;4.10;;;16.70;1.00;;;;;;5021439;28;20514;-72
2022/11/15 11:25:42;;;;;;;6.47;5.17;;;17.00;1.00;;;;;;5012021;28;20957;-72
2022/11/15 11:28:55;;;;;;;9.70;5.40;;;17.20;1.00;;;;;;5005361;28;20425;-69
2022/11/15 11:31:39;;;;;;;10.20;5.60;;;17.00;1.00;;;;;;4973437;28;20478;-71
2022/11/15 11:34:40;;;;;;;7.50;5.00;;;17.00;1.00;;;;;;4974344;28;20446;-73
2022/11/15 11:37:17;;;;;;;7.57;4.50;;;17.60;1.00;;;;;;5006108;28;20468;-72
2022/11/15 11:39:44;;;;;;;18.40;7.13;;;18.00;1.00;;;;;;5021667;28;20420;-73
2022/11/15 11:42:26;;;;;;;11.10;6.30;;;17.80;1.00;;;;;;5019890;28;20491;-72
2022/11/15 11:45:01;;;;;;;8.03;5.00;;;17.70;1.00;;;;;;5011127;28;20432;-71
2022/11/15 11:47:38;;;;;;;9.67;5.23;;;17.60;1.00;;;;;;5008895;28;20444;-71
2022/11/15 11:50:15;;;;;;;5.93;4.80;;;17.40;1.00;;;;;;5009029;28;20431;-72
2022/11/15 11:53:08;;;;;;;7.57;4.30;;;17.10;1.00;;;;;;5006339;28;20440;-70
2022/11/15 11:55:39;;;;;;;7.20;4.60;;;17.10;1.00;;;;;;5017372;28;20496;-70
2022/11/15 11:58:34;;;;;;;5.40;4.07;;;16.90;1.00;;;;;;5011452;28;20459;-72
2022/11/15 12:01:12;;;;;;;7.03;3.90;;;16.70;1.00;;;;;;5016241;28;20552;-71
2022/11/15 12:03:54;;;;;;;5.57;3.93;;;16.50;1.00;;;;;;5009834;28;20452;-72
2022/11/15 12:06:23;;;;;;;5.27;3.27;;;16.50;1.00;;;;;;5010312;28;20433;-71
2022/11/15 12:08:59;;;;;;;4.47;3.43;;;16.60;1.00;;;;;;5009850;28;20440;-71
2022/11/15 12:12:09;;;;;;;5.17;3.27;;;16.70;1.00;;;;;;5008465;28;20871;-71
2022/11/15 12:14:53;;;;;;;4.13;3.40;;;16.60;1.00;;;;;;4986443;28;20445;-71
2022/11/15 12:17:26;;;;;;;3.80;3.13;;;16.60;1.00;;;;;;5024270;28;20935;-71
2022/11/15 12:19:56;;;;;;;3.77;2.83;;;16.60;1.00;;;;;;5009461;28;20445;-71
2022/11/15 12:22:39;;;;;;;5.30;3.23;;;16.40;1.00;;;;;;5018146;28;20425;-72
2022/11/15 12:25:16;;;;;;;6.13;3.77;;;16.40;1.00;;;;;;5017199;28;20532;-72
2022/11/15 12:28:01;;;;;;;7.37;4.50;;;16.20;1.00;;;;;;5009959;28;20444;-71
2022/11/15 12:30:41;;;;;;;7.40;3.13;;;16.00;1.00;;;;;;5010522;28;20415;-71
2022/11/15 12:33:31;;;;;;;5.30;3.20;;;15.80;1.00;;;;;;5009040;28;20463;-71
2022/11/15 12:36:03;;;;;;;4.20;3.10;;;15.60;1.00;;;;;;5012879;28;20510;-72
2022/11/15 12:38:53;;;;;;;3.67;3.07;;;15.50;1.00;;;;;;5018636;28;20417;-72
2022/11/15 12:41:20;;;;;;;6.47;3.20;;;15.40;1.00;;;;;;5007943;28;20799;-72
2022/11/15 12:43:47;;;;;;;4.90;3.50;;;15.30;1.00;;;;;;5014365;28;20453;-71
2022/11/15 12:46:38;;;;;;;5.67;3.23;;;15.20;1.00;;;;;;5001291;28;20524;-72
2022/11/15 12:49:25;;;;;;;6.63;3.60;;;15.10;1.00;;;;;;5002782;28;20467;-71
2022/11/15 12:51:52;;;;;;;4.20;3.60;;;15.10;1.00;;;;;;5013096;28;20449;-70
2022/11/15 12:54:23;;;;;;;4.80;3.10;;;15.10;1.00;;;;;;5018729;28;20595;-71
2022/11/15 12:57:15;;;;;;;6.37;3.87;;;15.20;1.00;;;;;;5017271;28;20490;-71
2022/11/15 13:00:04;;;;;;;6.83;4.80;;;15.40;1.00;;;;;;4999640;28;20499;-71
2022/11/15 13:02:37;;;;;;;8.70;4.80;;;15.70;1.00;;;;;;5015400;28;20564;-72
2022/11/15 13:05:22;;;;;;;8.63;7.00;;;15.70;1.00;;;;;;5009384;28;20456;-72
2022/11/15 13:07:47;;;;;;;9.23;7.03;;;16.00;1.00;;;;;;5007248;28;20935;-71
2022/11/15 13:10:13;;;;;;;11.43;8.60;;;16.20;1.00;;;;;;5023388;28;20500;-72
2022/11/15 13:12:44;;;;;;;10.77;6.67;;;16.30;1.00;;;;;;5007539;28;20257;-71
2022/11/15 13:15:12;;;;;;;5.17;3.50;;;16.40;1.00;;;;;;5001548;28;20190;-71
2022/11/15 13:17:46;;;;;;;4.20;3.30;;;16.50;1.00;;;;;;5017527;28;20465;-70
2022/11/15 13:20:20;;;;;;;5.00;3.73;;;16.60;1.00;;;;;;5029934;28;20409;-72
2022/11/15 13:22:58;;;;;;;10.00;3.50;;;16.70;1.00;;;;;;5010356;28;20531;-71
2022/11/15 13:25:39;;;;;;;7.27;3.77;;;16.60;1.00;;;;;;5009553;28;20405;-69
2022/11/15 13:28:13;;;;;;;9.23;3.60;;;16.50;1.00;;;;;;5001985;28;20405;-71
2022/11/15 13:30:46;;;;;;;6.30;4.27;;;16.40;1.00;;;;;;5005310;28;20440;-69
2022/11/15 13:33:22;;;;;;;4.80;4.00;;;16.20;1.00;;;;;;5019870;28;20452;-71
2022/11/15 13:35:52;;;;;;;5.83;4.30;;;16.20;1.00;;;;;;5011041;28;20518;-70
2022/11/15 13:38:24;;;;;;;6.67;3.87;;;16.20;1.00;;;;;;5019348;28;20405;-71